createdAt,value
2017-12-22T00:00:45.713Z,0
2017-12-22T00:01:45.671Z,0
2017-12-22T00:02:45.380Z,0
2017-12-22T00:03:45.806Z,0
2017-12-22T00:04:45.739Z,0
2017-12-22T00:05:46.237Z,0
2017-12-22T00:06:46.364Z,0
2017-12-22T00:07:46.661Z,0
2017-12-22T00:08:46.732Z,0
2017-12-22T00:09:46.626Z,0
2017-12-22T00:10:46.709Z,0
2017-12-22T00:11:46.444Z,0
2017-12-22T00:12:46.925Z,0
2017-12-22T00:13:46.601Z,0
2017-12-22T00:14:46.969Z,0
2017-12-22T00:15:46.540Z,0
2017-12-22T00:16:46.725Z,0
2017-12-22T00:17:47.399Z,0
2017-12-22T00:18:46.895Z,0
2017-12-22T00:19:47.556Z,0
2017-12-22T00:20:47.584Z,0
2017-12-22T00:21:47.770Z,0
2017-12-22T00:22:47.913Z,0
2017-12-22T00:23:49.123Z,0
2017-12-22T00:24:48.312Z,0
2017-12-22T00:25:48.672Z,0
2017-12-22T00:26:48.722Z,0
2017-12-22T00:27:48.714Z,0
2017-12-22T00:28:48.814Z,0
2017-12-22T00:29:48.515Z,0
2017-12-22T00:30:49.182Z,0
2017-12-22T00:31:49.527Z,0
2017-12-22T00:32:49.616Z,0
2017-12-22T00:33:49.607Z,0
2017-12-22T00:34:49.688Z,0
2017-12-22T00:35:49.630Z,0
2017-12-22T00:36:49.422Z,0
2017-12-22T00:37:49.791Z,0
2017-12-22T00:38:50.427Z,0
2017-12-22T00:39:50.234Z,0
2017-12-22T00:40:50.944Z,0
2017-12-22T00:41:50.431Z,0
2017-12-22T00:42:50.554Z,0
2017-12-22T00:43:50.648Z,0
2017-12-22T00:44:51.351Z,0
2017-12-22T00:45:51.522Z,0
2017-12-22T00:46:51.527Z,0
2017-12-22T00:47:51.455Z,0
2017-12-22T00:48:51.778Z,0
2017-12-22T00:49:52.502Z,0
2017-12-22T00:50:51.801Z,0
2017-12-22T00:51:51.740Z,0
2017-12-22T00:52:51.880Z,0
2017-12-22T00:53:51.737Z,0
2017-12-22T00:54:52.035Z,0
2017-12-22T00:55:52.339Z,0
2017-12-22T00:56:53.000Z,0
2017-12-22T00:57:53.395Z,0
2017-12-22T00:58:53.408Z,0
2017-12-22T00:59:53.534Z,0
2017-12-22T01:00:54.438Z,0
2017-12-22T01:01:54.236Z,0
2017-12-22T01:02:54.561Z,0
2017-12-22T01:03:54.746Z,0
2017-12-22T01:04:54.718Z,0
2017-12-22T01:05:55.650Z,0
2017-12-22T01:06:55.438Z,0
2017-12-22T01:07:55.491Z,0
2017-12-22T01:08:55.434Z,0
2017-12-22T01:09:55.513Z,0
2017-12-22T01:10:55.521Z,0
2017-12-22T01:11:55.301Z,0
2017-12-22T01:12:55.584Z,0
2017-12-22T01:13:55.600Z,0
2017-12-22T01:14:55.352Z,0
2017-12-22T01:15:55.557Z,0
2017-12-22T01:16:55.547Z,0
2017-12-22T01:17:56.241Z,0
2017-12-22T01:18:56.281Z,0
2017-12-22T01:19:56.770Z,0
2017-12-22T01:20:56.531Z,0
2017-12-22T01:21:57.008Z,0
2017-12-22T01:22:56.757Z,0
2017-12-22T01:23:57.461Z,0
2017-12-22T01:24:57.254Z,0
2017-12-22T01:25:57.466Z,0
2017-12-22T01:26:57.287Z,0
2017-12-22T01:27:57.484Z,0
2017-12-22T01:28:58.097Z,0
2017-12-22T01:29:57.596Z,0
2017-12-22T01:30:58.335Z,0
2017-12-22T01:31:58.118Z,0
2017-12-22T01:32:58.143Z,0
2017-12-22T01:33:58.230Z,0
2017-12-22T01:34:58.483Z,0
2017-12-22T01:35:58.216Z,0
2017-12-22T01:36:58.245Z,0
2017-12-22T01:37:58.728Z,0
2017-12-22T01:38:58.486Z,0
2017-12-22T01:39:58.571Z,0
2017-12-22T01:40:58.812Z,0
2017-12-22T01:41:58.551Z,0
2017-12-22T01:42:59.007Z,0
2017-12-22T01:43:58.761Z,0
2017-12-22T01:44:58.564Z,0
2017-12-22T01:45:59.212Z,0
2017-12-22T01:46:58.734Z,0
2017-12-22T01:47:59.196Z,0
2017-12-22T01:48:59.351Z,0
2017-12-22T01:49:59.471Z,0
2017-12-22T01:50:59.775Z,0
2017-12-22T01:52:00.530Z,0
2017-12-22T01:53:00.839Z,0
2017-12-22T01:54:00.534Z,0
2017-12-22T01:55:00.051Z,0
2017-12-22T01:56:01.191Z,0
2017-12-22T01:57:00.553Z,0
2017-12-22T01:58:00.784Z,0
2017-12-22T01:59:01.303Z,0
2017-12-22T02:00:01.098Z,0
2017-12-22T02:01:01.168Z,0
2017-12-22T02:02:01.536Z,0
2017-12-22T02:03:01.730Z,0
2017-12-22T02:04:02.017Z,0
2017-12-22T02:05:02.034Z,0
2017-12-22T02:06:01.809Z,0
2017-12-22T02:07:01.972Z,0
2017-12-22T02:08:02.457Z,0
2017-12-22T02:09:02.494Z,0
2017-12-22T02:10:01.986Z,0
2017-12-22T02:11:02.516Z,0
2017-12-22T02:12:02.616Z,0
2017-12-22T02:13:02.826Z,0
2017-12-22T02:14:02.648Z,0
2017-12-22T02:15:02.980Z,0
2017-12-22T02:16:02.595Z,0
2017-12-22T02:17:03.019Z,0
2017-12-22T02:18:03.077Z,0
2017-12-22T02:19:02.643Z,0
2017-12-22T02:20:02.636Z,0
2017-12-22T02:21:03.061Z,0
2017-12-22T02:22:03.456Z,0
2017-12-22T02:23:04.184Z,0
2017-12-22T02:24:04.625Z,0
2017-12-22T02:25:04.645Z,0
2017-12-22T02:26:04.840Z,0
2017-12-22T02:27:04.630Z,0
2017-12-22T02:28:04.386Z,0
2017-12-22T02:29:04.777Z,0
2017-12-22T02:30:04.645Z,0
2017-12-22T02:31:04.532Z,0
2017-12-22T02:32:05.235Z,0
2017-12-22T02:33:05.678Z,0
2017-12-22T02:34:05.972Z,0
2017-12-22T02:35:05.801Z,0
2017-12-22T02:36:05.537Z,0
2017-12-22T02:37:05.468Z,0
2017-12-22T02:38:05.653Z,0
2017-12-22T02:39:06.424Z,0
2017-12-22T02:40:06.633Z,0
2017-12-22T02:41:06.278Z,0
2017-12-22T02:42:06.017Z,0
2017-12-22T02:43:06.453Z,0
2017-12-22T02:44:06.454Z,0
2017-12-22T02:45:06.496Z,0
2017-12-22T02:46:05.790Z,0
2017-12-22T02:47:06.593Z,0
2017-12-22T02:48:06.380Z,0
2017-12-22T02:49:06.298Z,0
2017-12-22T02:50:07.072Z,0
2017-12-22T02:51:06.795Z,0
2017-12-22T02:52:07.041Z,0
2017-12-22T02:53:07.038Z,0
2017-12-22T02:54:07.290Z,0
2017-12-22T02:55:07.393Z,0
2017-12-22T02:58:41.183Z,0
2017-12-22T02:59:26.017Z,0
2017-12-22T03:00:27.992Z,0
2017-12-22T03:01:37.896Z,0
2017-12-22T03:02:37.903Z,0
2017-12-22T03:03:37.630Z,0
2017-12-22T03:04:38.384Z,0
2017-12-22T03:05:38.343Z,0
2017-12-22T03:06:38.133Z,0
2017-12-22T03:07:38.826Z,0
2017-12-22T03:08:38.833Z,0
2017-12-22T03:09:38.868Z,0
2017-12-22T03:10:38.711Z,0
2017-12-22T03:11:38.783Z,0
2017-12-22T03:12:39.485Z,0
2017-12-22T03:13:39.164Z,0
2017-12-22T03:14:39.881Z,0
2017-12-22T03:15:39.856Z,0
2017-12-22T03:16:39.653Z,0
2017-12-22T03:17:40.373Z,0
2017-12-22T03:18:40.094Z,0
2017-12-22T03:19:40.236Z,0
2017-12-22T03:20:40.406Z,0
2017-12-22T03:21:40.959Z,0
2017-12-22T03:22:41.075Z,0
2017-12-22T03:23:41.528Z,0
2017-12-22T03:24:41.733Z,0
2017-12-22T03:25:42.432Z,0
2017-12-22T03:26:41.944Z,0
2017-12-22T03:27:42.228Z,0
2017-12-22T03:28:42.699Z,0
2017-12-22T03:29:42.207Z,0
2017-12-22T03:30:42.908Z,0
2017-12-22T03:31:42.474Z,0
2017-12-22T03:32:42.963Z,0
2017-12-22T03:33:43.179Z,0
2017-12-22T03:34:43.562Z,0
2017-12-22T03:35:43.413Z,0
2017-12-22T03:36:43.644Z,0
2017-12-22T03:37:43.671Z,0
2017-12-22T03:38:43.693Z,0
2017-12-22T03:39:43.915Z,0
2017-12-22T03:40:44.347Z,0
2017-12-22T03:41:45.029Z,0
2017-12-22T03:42:45.036Z,0
2017-12-22T03:43:45.132Z,0
2017-12-22T03:44:44.842Z,0
2017-12-22T03:45:45.295Z,0
2017-12-22T03:46:45.534Z,0
2017-12-22T03:47:45.595Z,0
2017-12-22T03:48:45.573Z,0
2017-12-22T03:49:45.104Z,0
2017-12-22T03:50:45.373Z,0
2017-12-22T03:51:45.844Z,0
2017-12-22T03:52:45.772Z,0
2017-12-22T03:53:45.986Z,0
2017-12-22T03:54:45.972Z,0
2017-12-22T03:55:46.381Z,0
2017-12-22T03:56:45.932Z,0
2017-12-22T03:57:46.208Z,0
2017-12-22T03:58:46.867Z,0
2017-12-22T03:59:46.670Z,0
2017-12-22T04:00:55.600Z,0
2017-12-22T04:01:47.146Z,0
2017-12-22T04:02:47.243Z,0
2017-12-22T04:03:47.446Z,0
2017-12-22T04:04:48.644Z,0
2017-12-22T04:05:49.348Z,0
2017-12-22T04:06:49.051Z,0
2017-12-22T04:07:49.470Z,0
2017-12-22T04:08:48.934Z,0
2017-12-22T04:09:49.245Z,0
2017-12-22T04:10:49.951Z,0
2017-12-22T04:11:49.744Z,0
2017-12-22T04:12:49.910Z,0
2017-12-22T04:13:50.037Z,0
2017-12-22T04:14:50.487Z,0
2017-12-22T04:15:49.996Z,0
2017-12-22T04:16:50.403Z,0
2017-12-22T04:17:50.554Z,0
2017-12-22T04:18:50.963Z,0
2017-12-22T04:19:51.652Z,0
2017-12-22T04:20:51.423Z,0
2017-12-22T04:21:51.846Z,0
2017-12-22T04:22:52.282Z,0
2017-12-22T04:23:53.004Z,0
2017-12-22T04:24:53.035Z,0
2017-12-22T04:25:52.779Z,0
2017-12-22T04:26:52.932Z,0
2017-12-22T04:27:53.712Z,0
2017-12-22T04:28:53.664Z,0
2017-12-22T04:29:54.035Z,0
2017-12-22T04:30:53.568Z,0
2017-12-22T04:31:53.737Z,0
2017-12-22T04:32:54.269Z,0
2017-12-22T04:33:54.036Z,0
2017-12-22T04:34:54.419Z,0
2017-12-22T04:35:55.117Z,0
2017-12-22T04:36:54.884Z,0
2017-12-22T04:37:55.071Z,0
2017-12-22T04:38:55.230Z,0
2017-12-22T04:39:55.779Z,0
2017-12-22T04:40:55.877Z,0
2017-12-22T04:41:56.533Z,0
2017-12-22T04:42:55.831Z,0
2017-12-22T04:43:56.586Z,0
2017-12-22T04:44:56.121Z,0
2017-12-22T04:45:56.800Z,0
2017-12-22T04:46:56.030Z,0
2017-12-22T04:47:56.601Z,0
2017-12-22T04:48:56.769Z,0
2017-12-22T04:49:57.182Z,0
2017-12-22T04:50:57.819Z,0
2017-12-22T04:51:57.701Z,0
2017-12-22T04:52:57.655Z,0
2017-12-22T04:53:57.915Z,0
2017-12-22T04:54:58.586Z,0
2017-12-22T04:55:58.591Z,0
2017-12-22T04:56:58.386Z,0
2017-12-22T04:57:58.834Z,0
2017-12-22T04:58:59.290Z,0
2017-12-22T04:59:59.405Z,0
2017-12-22T05:01:19.471Z,0
2017-12-22T05:02:04.306Z,0
2017-12-22T05:03:04.462Z,0
2017-12-22T05:04:05.143Z,0
2017-12-22T05:05:05.263Z,0
2017-12-22T05:06:04.707Z,0
2017-12-22T05:07:05.036Z,0
2017-12-22T05:08:05.129Z,0
2017-12-22T05:09:05.303Z,0
2017-12-22T05:10:05.742Z,0
2017-12-22T05:11:05.405Z,0
2017-12-22T05:12:04.910Z,0
2017-12-22T05:13:05.440Z,0
2017-12-22T05:14:05.588Z,0
2017-12-22T05:15:05.706Z,0
2017-12-22T05:16:05.485Z,0
2017-12-22T05:17:05.280Z,0
2017-12-22T05:18:05.587Z,0
2017-12-22T05:19:05.306Z,0
2017-12-22T05:20:05.476Z,0
2017-12-22T05:21:05.479Z,0
2017-12-22T05:22:05.887Z,0
2017-12-22T05:23:05.972Z,0
2017-12-22T05:24:06.491Z,0
2017-12-22T05:25:06.369Z,0
2017-12-22T05:26:06.506Z,0
2017-12-22T05:27:06.224Z,0
2017-12-22T05:28:06.481Z,0
2017-12-22T05:29:05.976Z,0
2017-12-22T05:30:06.259Z,0
2017-12-22T05:31:06.961Z,0
2017-12-22T05:32:06.515Z,0
2017-12-22T05:33:06.971Z,0
2017-12-22T05:34:07.436Z,0
2017-12-22T05:35:07.486Z,0
2017-12-22T05:36:07.711Z,0
2017-12-22T05:37:07.435Z,0
2017-12-22T05:38:07.970Z,0
2017-12-22T05:39:07.700Z,0
2017-12-22T05:40:07.990Z,0
2017-12-22T05:41:07.770Z,0
2017-12-22T05:42:08.501Z,0
2017-12-22T05:43:07.712Z,0
2017-12-22T05:44:08.533Z,0
2017-12-22T05:45:08.302Z,0
2017-12-22T05:46:08.796Z,0
2017-12-22T05:47:08.531Z,0
2017-12-22T05:48:09.176Z,0
2017-12-22T05:49:09.599Z,0
2017-12-22T05:50:09.155Z,0
2017-12-22T05:51:09.578Z,0
2017-12-22T05:52:09.691Z,0
2017-12-22T05:53:10.141Z,0
2017-12-22T05:54:10.436Z,0
2017-12-22T05:55:10.373Z,0
2017-12-22T05:56:10.631Z,0
2017-12-22T05:57:10.602Z,0
2017-12-22T05:58:11.067Z,0
2017-12-22T05:59:10.721Z,0
2017-12-22T06:00:11.114Z,0
2017-12-22T06:01:20.659Z,0
2017-12-22T06:02:11.023Z,0
2017-12-22T06:03:11.438Z,0
2017-12-22T06:04:11.357Z,0
2017-12-22T06:05:11.964Z,0
2017-12-22T06:06:11.919Z,0
2017-12-22T06:07:12.357Z,0
2017-12-22T06:08:13.010Z,0
2017-12-22T06:09:12.809Z,0
2017-12-22T06:10:13.186Z,0
2017-12-22T06:11:13.076Z,0
2017-12-22T06:12:13.718Z,0
2017-12-22T06:13:13.542Z,0
2017-12-22T06:14:13.817Z,0
2017-12-22T06:15:13.533Z,0
2017-12-22T06:16:13.030Z,0
2017-12-22T06:17:13.901Z,0
2017-12-22T06:18:13.573Z,0
2017-12-22T06:19:14.372Z,0
2017-12-22T06:20:14.138Z,0
2017-12-22T06:21:14.085Z,0
2017-12-22T06:22:14.490Z,0
2017-12-22T06:23:13.920Z,0
2017-12-22T06:24:14.690Z,0
2017-12-22T06:25:14.870Z,0
2017-12-22T06:26:15.174Z,0
2017-12-22T06:27:14.665Z,0
2017-12-22T06:28:15.498Z,0
2017-12-22T06:29:14.840Z,0
2017-12-22T06:30:15.293Z,0
2017-12-22T06:31:15.730Z,0
2017-12-22T06:32:16.133Z,0
2017-12-22T06:33:16.321Z,0
2017-12-22T06:34:16.454Z,0
2017-12-22T06:35:16.728Z,0
2017-12-22T06:36:16.664Z,0
2017-12-22T06:37:17.187Z,0
2017-12-22T06:38:17.418Z,0
2017-12-22T06:39:17.837Z,0
2017-12-22T06:40:17.993Z,0
2017-12-22T06:41:18.247Z,0
2017-12-22T06:42:17.924Z,0
2017-12-22T06:43:18.608Z,0
2017-12-22T06:44:18.653Z,0
2017-12-22T06:45:18.099Z,0
2017-12-22T06:46:18.549Z,0
2017-12-22T06:47:18.967Z,0
2017-12-22T06:48:19.115Z,0
2017-12-22T06:49:19.789Z,0
2017-12-22T06:50:19.792Z,0
2017-12-22T06:51:19.974Z,0
2017-12-22T06:52:20.341Z,0
2017-12-22T06:53:20.219Z,0
2017-12-22T06:54:20.524Z,0
2017-12-22T06:55:20.905Z,0
2017-12-22T06:56:21.021Z,0
2017-12-22T06:57:21.427Z,0
2017-12-22T06:58:21.476Z,0
2017-12-22T06:59:21.858Z,0
2017-12-22T07:00:23.075Z,0
2017-12-22T07:01:29.897Z,0
2017-12-22T07:02:21.168Z,0
2017-12-22T07:03:21.637Z,0
2017-12-22T07:04:21.700Z,0
2017-12-22T07:05:22.572Z,0
2017-12-22T07:06:22.773Z,0
2017-12-22T07:07:22.477Z,0
2017-12-22T07:08:22.667Z,0
2017-12-22T07:09:22.321Z,0
2017-12-22T07:10:22.445Z,0
2017-12-22T07:11:22.851Z,0
2017-12-22T07:12:23.275Z,0
2017-12-22T07:13:23.645Z,0
2017-12-22T07:14:23.439Z,0
2017-12-22T07:15:23.868Z,0
2017-12-22T07:16:23.664Z,0
2017-12-22T07:17:23.972Z,0
2017-12-22T07:18:24.127Z,0
2017-12-22T07:19:24.528Z,5
2017-12-22T07:20:24.939Z,5
2017-12-22T07:21:25.669Z,5
2017-12-22T07:22:25.962Z,5
2017-12-22T07:23:25.383Z,5
2017-12-22T07:24:25.647Z,5
2017-12-22T07:25:25.801Z,5
2017-12-22T07:26:27.630Z,5
2017-12-22T07:27:26.206Z,5
2017-12-22T07:28:26.358Z,5
2017-12-22T07:29:26.701Z,5
2017-12-22T07:30:27.170Z,5
2017-12-22T07:31:27.643Z,10
2017-12-22T07:32:27.398Z,10
2017-12-22T07:33:27.783Z,10
2017-12-22T07:34:27.726Z,10
2017-12-22T07:35:28.241Z,10
2017-12-22T07:36:28.259Z,10
2017-12-22T07:37:27.523Z,10
2017-12-22T07:38:28.098Z,15
2017-12-22T07:39:28.191Z,15
2017-12-22T07:40:28.552Z,15
2017-12-22T07:41:28.460Z,15
2017-12-22T07:42:28.944Z,20
2017-12-22T07:43:29.075Z,20
2017-12-22T07:44:29.284Z,20
2017-12-22T07:45:29.691Z,20
2017-12-22T07:46:30.340Z,20
2017-12-22T07:47:29.651Z,20
2017-12-22T07:48:29.950Z,25
2017-12-22T07:49:29.853Z,25
2017-12-22T07:50:30.618Z,25
2017-12-22T07:51:30.539Z,30
2017-12-22T07:52:30.922Z,30
2017-12-22T07:53:30.714Z,35
2017-12-22T07:54:31.136Z,35
2017-12-22T07:55:31.491Z,35
2017-12-22T07:56:31.569Z,35
2017-12-22T07:57:31.174Z,30
2017-12-22T07:58:31.743Z,30
2017-12-22T07:59:32.403Z,25
2017-12-22T08:00:32.463Z,25
2017-12-22T08:01:42.024Z,25
2017-12-22T08:02:32.204Z,30
2017-12-22T08:03:32.701Z,30
2017-12-22T08:04:48.049Z,30
2017-12-22T08:05:47.452Z,30
2017-12-22T08:06:47.287Z,30
2017-12-22T08:07:48.499Z,30
2017-12-22T08:08:48.162Z,25
2017-12-22T08:09:48.569Z,25
2017-12-22T08:10:48.237Z,25
2017-12-22T08:11:48.987Z,30
2017-12-22T08:12:48.774Z,30
2017-12-22T08:13:50.664Z,25
2017-12-22T08:14:49.984Z,30
2017-12-22T08:15:50.007Z,30
2017-12-22T08:16:49.946Z,30
2017-12-22T08:17:49.563Z,30
2017-12-22T08:18:50.082Z,30
2017-12-22T08:19:50.502Z,30
2017-12-22T08:20:49.966Z,30
2017-12-22T08:21:50.261Z,30
2017-12-22T08:22:51.236Z,30
2017-12-22T08:23:50.704Z,30
2017-12-22T08:24:51.000Z,35
2017-12-22T08:25:51.043Z,35
2017-12-22T08:26:51.489Z,35
2017-12-22T08:27:51.872Z,35
2017-12-22T08:28:52.303Z,35
2017-12-22T08:29:52.666Z,35
2017-12-22T08:30:52.788Z,35
2017-12-22T08:31:52.828Z,40
2017-12-22T08:32:53.267Z,45
2017-12-22T08:33:53.392Z,45
2017-12-22T08:34:54.041Z,50
2017-12-22T08:35:53.562Z,50
2017-12-22T08:36:53.420Z,55
2017-12-22T08:37:54.075Z,55
2017-12-22T08:38:54.338Z,55
2017-12-22T08:39:54.713Z,55
2017-12-22T08:40:54.213Z,55
2017-12-22T08:41:54.134Z,60
2017-12-22T08:42:54.194Z,70
2017-12-22T08:43:54.778Z,85
2017-12-22T08:44:55.196Z,75
2017-12-22T08:45:54.952Z,75
2017-12-22T08:46:55.372Z,70
2017-12-22T08:47:55.123Z,70
2017-12-22T08:48:55.532Z,70
2017-12-22T08:49:55.625Z,70
2017-12-22T08:50:55.804Z,70
2017-12-22T08:51:56.810Z,70
2017-12-22T08:52:56.497Z,70
2017-12-22T08:53:55.996Z,75
2017-12-22T08:54:56.538Z,75
2017-12-22T08:55:56.723Z,75
2017-12-22T08:56:56.729Z,90
2017-12-22T08:57:55.950Z,80
2017-12-22T08:58:56.249Z,65
2017-12-22T08:59:56.686Z,50
2017-12-22T09:00:58.356Z,45
2017-12-22T09:01:59.288Z,45
2017-12-22T09:02:57.241Z,45
2017-12-22T09:03:57.364Z,50
2017-12-22T09:04:57.828Z,50
2017-12-22T09:05:57.838Z,50
2017-12-22T09:06:57.793Z,45
2017-12-22T09:07:58.484Z,40
2017-12-22T09:08:57.716Z,45
2017-12-22T09:09:57.938Z,45
2017-12-22T09:10:57.637Z,50
2017-12-22T09:11:58.494Z,50
2017-12-22T09:12:59.380Z,45
2017-12-22T09:13:59.398Z,50
2017-12-22T09:14:58.914Z,55
2017-12-22T09:15:59.224Z,55
2017-12-22T09:16:59.628Z,55
2017-12-22T09:17:59.256Z,55
2017-12-22T09:18:59.362Z,60
2017-12-22T09:19:59.719Z,60
2017-12-22T09:21:00.375Z,60
2017-12-22T09:22:00.805Z,55
2017-12-22T09:23:01.445Z,55
2017-12-22T09:24:01.201Z,60
2017-12-22T09:25:01.553Z,65
2017-12-22T09:26:01.786Z,65
2017-12-22T09:27:02.167Z,65
2017-12-22T09:28:02.385Z,75
2017-12-22T09:29:02.483Z,80
2017-12-22T09:30:03.240Z,85
2017-12-22T09:31:03.375Z,85
2017-12-22T09:32:04.140Z,85
2017-12-22T09:33:03.595Z,85
2017-12-22T09:34:04.052Z,85
2017-12-22T09:35:04.609Z,85
2017-12-22T09:36:04.298Z,85
2017-12-22T09:37:09.059Z,85
2017-12-22T09:38:09.556Z,85
2017-12-22T09:39:09.240Z,90
2017-12-22T09:40:10.000Z,90
2017-12-22T09:41:09.691Z,100
2017-12-22T09:42:09.874Z,110
2017-12-22T09:43:09.561Z,115
2017-12-22T09:44:10.310Z,120
2017-12-22T09:45:10.854Z,125
2017-12-22T09:46:10.846Z,120
2017-12-22T09:47:10.849Z,120
2017-12-22T09:48:10.722Z,120
2017-12-22T09:49:10.439Z,120
2017-12-22T09:50:10.905Z,120
2017-12-22T09:51:10.808Z,125
2017-12-22T09:52:10.877Z,140
2017-12-22T09:53:11.609Z,150
2017-12-22T09:54:11.413Z,150
2017-12-22T09:55:11.591Z,145
2017-12-22T09:56:11.784Z,135
2017-12-22T09:57:12.247Z,120
2017-12-22T09:58:12.349Z,110
2017-12-22T09:59:13.020Z,100
2017-12-22T10:00:12.248Z,95
2017-12-22T10:01:13.451Z,90
2017-12-22T10:02:12.853Z,85
2017-12-22T10:03:13.278Z,80
2017-12-22T10:04:13.463Z,85
2017-12-22T10:05:13.808Z,80
2017-12-22T10:06:13.986Z,75
2017-12-22T10:07:13.947Z,70
2017-12-22T10:08:14.340Z,65
2017-12-22T10:09:14.188Z,65
2017-12-22T10:10:14.186Z,65
2017-12-22T10:11:14.869Z,75
2017-12-22T10:12:14.946Z,75
2017-12-22T10:13:14.454Z,80
2017-12-22T10:14:14.511Z,85
2017-12-22T10:15:14.737Z,90
2017-12-22T10:16:15.152Z,95
2017-12-22T10:17:15.590Z,80
2017-12-22T10:18:15.616Z,90
2017-12-22T10:19:15.777Z,120
2017-12-22T10:20:15.888Z,145
2017-12-22T10:21:16.879Z,145
2017-12-22T10:22:16.603Z,145
2017-12-22T10:23:16.595Z,145
2017-12-22T10:24:16.065Z,185
2017-12-22T10:25:16.185Z,210
2017-12-22T10:26:16.483Z,230
2017-12-22T10:27:16.689Z,255
2017-12-22T10:28:17.118Z,245
2017-12-22T10:29:17.318Z,240
2017-12-22T10:30:17.589Z,220
2017-12-22T10:31:17.826Z,210
2017-12-22T10:32:18.150Z,215
2017-12-22T10:33:17.687Z,200
2017-12-22T10:34:18.053Z,200
2017-12-22T10:35:17.952Z,210
2017-12-22T10:36:18.393Z,200
2017-12-22T10:37:18.105Z,215
2017-12-22T10:38:17.990Z,245
2017-12-22T10:39:18.783Z,270
2017-12-22T10:40:18.354Z,280
2017-12-22T10:41:18.662Z,280
2017-12-22T10:42:19.358Z,265
2017-12-22T10:43:19.357Z,235
2017-12-22T10:44:19.158Z,220
2017-12-22T10:45:19.266Z,210
2017-12-22T10:46:34.267Z,200
2017-12-22T10:47:19.423Z,195
2017-12-22T10:48:19.796Z,170
2017-12-22T10:49:19.969Z,165
2017-12-22T10:50:20.091Z,155
2017-12-22T10:51:20.365Z,140
2017-12-22T10:52:20.501Z,120
2017-12-22T10:53:20.899Z,95
2017-12-22T10:54:21.122Z,110
2017-12-22T10:55:21.260Z,95
2017-12-22T10:56:21.268Z,115
2017-12-22T10:57:21.983Z,130
2017-12-22T10:58:21.789Z,130
2017-12-22T10:59:22.058Z,105
2017-12-22T11:00:21.821Z,80
2017-12-22T11:02:21.844Z,95
2017-12-22T11:03:21.757Z,105
2017-12-22T11:04:21.989Z,135
2017-12-22T11:05:22.654Z,155
2017-12-22T11:06:23.095Z,155
2017-12-22T11:07:23.211Z,160
2017-12-22T11:08:23.630Z,190
2017-12-22T11:09:23.518Z,180
2017-12-22T11:10:23.809Z,160
2017-12-22T11:11:39.104Z,165
2017-12-22T11:12:38.854Z,160
2017-12-22T11:13:39.561Z,150
2017-12-22T11:14:39.608Z,155
2017-12-22T11:15:39.616Z,145
2017-12-22T11:16:39.608Z,115
2017-12-22T11:17:39.403Z,110
2017-12-22T11:18:40.069Z,80
2017-12-22T11:19:40.182Z,105
2017-12-22T11:20:40.703Z,120
2017-12-22T11:21:40.407Z,95
2017-12-22T11:22:40.822Z,90
2017-12-22T11:23:40.970Z,90
2017-12-22T11:24:41.390Z,90
2017-12-22T11:25:41.606Z,95
2017-12-22T11:26:41.987Z,80
2017-12-22T11:27:41.557Z,65
2017-12-22T11:28:41.968Z,65
2017-12-22T11:29:42.390Z,45
2017-12-22T11:30:42.559Z,45
2017-12-22T11:31:43.114Z,55
2017-12-22T11:32:43.263Z,85
2017-12-22T11:33:43.299Z,85
2017-12-22T11:34:43.044Z,75
2017-12-22T11:35:43.228Z,95
2017-12-22T11:36:43.506Z,100
2017-12-22T11:37:43.431Z,100
2017-12-22T11:38:43.987Z,80
2017-12-22T11:39:44.135Z,60
2017-12-22T11:40:43.634Z,60
2017-12-22T11:41:44.336Z,65
2017-12-22T11:42:44.066Z,60
2017-12-22T11:43:44.980Z,50
2017-12-22T11:44:44.530Z,55
2017-12-22T11:45:45.136Z,60
2017-12-22T11:46:44.966Z,45
2017-12-22T11:47:45.412Z,50
2017-12-22T11:48:45.813Z,60
2017-12-22T11:49:45.930Z,60
2017-12-22T11:50:46.349Z,70
2017-12-22T11:51:46.737Z,80
2017-12-22T11:52:47.116Z,85
2017-12-22T11:53:47.038Z,85
2017-12-22T11:54:47.425Z,100
2017-12-22T11:55:47.880Z,95
2017-12-22T11:56:47.632Z,65
2017-12-22T11:57:47.807Z,60
2017-12-22T11:58:48.184Z,60
2017-12-22T11:59:48.577Z,60
2017-12-22T12:01:03.318Z,60
2017-12-22T12:02:03.450Z,60
2017-12-22T12:03:03.463Z,70
2017-12-22T12:04:04.019Z,55
2017-12-22T12:05:04.265Z,55
2017-12-22T12:07:03.828Z,65
2017-12-22T12:08:03.871Z,45
2017-12-22T12:09:03.825Z,45
2017-12-22T12:10:03.820Z,40
2017-12-22T12:11:04.325Z,45
2017-12-22T12:12:18.927Z,50
2017-12-22T12:13:04.136Z,50
2017-12-22T12:14:04.560Z,65
2017-12-22T12:15:04.976Z,80
2017-12-22T12:16:04.916Z,95
2017-12-22T12:17:05.442Z,105
2017-12-22T12:18:05.323Z,100
2017-12-22T12:19:06.025Z,90
2017-12-22T12:20:05.754Z,90
2017-12-22T12:21:05.895Z,95
2017-12-22T12:22:06.607Z,95
2017-12-22T12:23:06.760Z,100
2017-12-22T12:24:06.740Z,115
2017-12-22T12:25:07.145Z,120
2017-12-22T12:26:06.916Z,110
2017-12-22T12:27:07.290Z,115
2017-12-22T12:28:07.433Z,120
2017-12-22T12:29:06.629Z,125
2017-12-22T12:30:07.345Z,125
2017-12-22T12:31:07.749Z,130
2017-12-22T12:32:07.769Z,130
2017-12-22T12:33:08.003Z,125
2017-12-22T12:34:08.230Z,125
2017-12-22T12:35:08.002Z,125
2017-12-22T12:36:07.951Z,130
2017-12-22T12:37:07.879Z,135
2017-12-22T12:38:08.127Z,135
2017-12-22T12:39:08.339Z,140
2017-12-22T12:40:09.052Z,140
2017-12-22T12:41:09.058Z,130
2017-12-22T12:42:09.127Z,130
2017-12-22T12:43:09.309Z,125
2017-12-22T12:44:09.506Z,120
2017-12-22T12:45:39.413Z,115
2017-12-22T12:46:10.196Z,115
2017-12-22T12:47:09.992Z,120
2017-12-22T12:48:10.380Z,130
2017-12-22T12:49:09.967Z,135
2017-12-22T12:50:10.898Z,135
2017-12-22T12:51:10.627Z,145
2017-12-22T12:52:11.682Z,150
2017-12-22T12:53:11.600Z,145
2017-12-22T12:54:10.954Z,145
2017-12-22T12:55:11.926Z,145
2017-12-22T12:56:10.924Z,145
2017-12-22T12:57:10.653Z,140
2017-12-22T12:58:11.709Z,135
2017-12-22T12:59:11.804Z,135
2017-12-22T13:00:11.747Z,120
2017-12-22T13:01:11.632Z,120
2017-12-22T13:02:12.372Z,120
2017-12-22T13:03:12.302Z,115
2017-12-22T13:04:11.819Z,110
2017-12-22T13:05:12.393Z,105
2017-12-22T13:06:12.141Z,105
2017-12-22T13:07:12.553Z,100
2017-12-22T13:08:13.202Z,75
2017-12-22T13:09:13.344Z,70
2017-12-22T13:10:13.908Z,60
2017-12-22T13:11:14.286Z,65
2017-12-22T13:12:13.798Z,75
2017-12-22T13:13:14.030Z,60
2017-12-22T13:14:14.478Z,55
2017-12-22T13:15:14.898Z,60
2017-12-22T13:16:15.558Z,70
2017-12-22T13:17:15.100Z,80
2017-12-22T13:18:15.250Z,80
2017-12-22T13:19:15.526Z,80
2017-12-22T13:20:15.958Z,80
2017-12-22T13:21:15.850Z,75
2017-12-22T13:22:16.247Z,80
2017-12-22T13:23:16.689Z,70
2017-12-22T13:24:16.488Z,70
2017-12-22T13:25:16.725Z,60
2017-12-22T13:26:16.751Z,45
2017-12-22T13:27:16.526Z,40
2017-12-22T13:28:16.414Z,50
2017-12-22T13:29:16.875Z,45
2017-12-22T13:30:17.278Z,50
2017-12-22T13:31:17.212Z,45
2017-12-22T13:32:17.677Z,60
2017-12-22T13:33:18.086Z,50
2017-12-22T13:34:18.254Z,55
2017-12-22T13:35:18.366Z,60
2017-12-22T13:36:18.812Z,50
2017-12-22T13:37:18.537Z,35
2017-12-22T13:38:18.821Z,40
2017-12-22T13:39:19.205Z,50
2017-12-22T13:40:19.084Z,55
2017-12-22T13:41:19.949Z,50
2017-12-22T13:42:19.845Z,55
2017-12-22T13:43:19.959Z,55
2017-12-22T13:44:20.377Z,50
2017-12-22T13:45:20.329Z,45
2017-12-22T13:46:19.918Z,40
2017-12-22T13:47:20.744Z,45
2017-12-22T13:48:20.763Z,45
2017-12-22T13:49:20.856Z,45
2017-12-22T13:50:21.013Z,40
2017-12-22T13:51:21.165Z,45
2017-12-22T13:52:21.033Z,45
2017-12-22T13:53:21.180Z,50
2017-12-22T13:54:21.863Z,45
2017-12-22T13:55:21.506Z,50
2017-12-22T13:56:21.954Z,50
2017-12-22T13:57:22.390Z,45
2017-12-22T13:58:22.812Z,50
2017-12-22T13:59:22.715Z,50
2017-12-22T14:00:22.989Z,50
2017-12-22T14:01:23.382Z,50
2017-12-22T14:02:23.085Z,50
2017-12-22T14:03:23.580Z,50
2017-12-22T14:04:24.268Z,45
2017-12-22T14:05:24.250Z,45
2017-12-22T14:06:24.794Z,40
2017-12-22T14:07:24.196Z,40
2017-12-22T14:08:25.097Z,40
2017-12-22T14:09:25.509Z,40
2017-12-22T14:10:25.869Z,35
2017-12-22T14:11:25.673Z,35
2017-12-22T14:12:26.440Z,35
2017-12-22T14:13:25.934Z,35
2017-12-22T14:14:26.666Z,35
2017-12-22T14:15:26.161Z,35
2017-12-22T14:16:26.608Z,35
2017-12-22T14:17:27.040Z,35
2017-12-22T14:18:26.448Z,30
2017-12-22T14:19:27.471Z,30
2017-12-22T14:20:27.077Z,30
2017-12-22T14:21:27.143Z,30
2017-12-22T14:22:27.187Z,30
2017-12-22T14:23:27.750Z,25
2017-12-22T14:24:28.172Z,25
2017-12-22T14:25:28.313Z,25
2017-12-22T14:26:28.646Z,25
2017-12-22T14:27:28.769Z,25
2017-12-22T14:28:29.177Z,20
2017-12-22T14:29:29.883Z,15
2017-12-22T14:30:29.844Z,15
2017-12-22T14:31:29.975Z,10
2017-12-22T14:32:30.024Z,10
2017-12-22T14:33:30.053Z,10
2017-12-22T14:34:30.323Z,10
2017-12-22T14:35:30.475Z,10